Time;durP1;ratioP1;P1;durP2;ratioP2;P2;SDS_P1;SDS_P2;PMS_P1;PMS_P2;Temp;Humidity;BMP_temperature;BMP_pressure;BME280_temperature;BME280_humidity;BME280_pressure;Samples;Min_cycle;Max_cycle;Signal;HPM_P1;HPM_P2
2022/03/21 00:01:20;;;;;;;9.05;8.27;;;16.90;51.50;;;;;;5051874;28;20206;-70
2022/03/21 00:03:46;;;;;;;10.20;9.30;;;16.90;51.50;;;;;;5052202;28;20230;-69
2022/03/21 00:06:11;;;;;;;10.25;9.35;;;16.90;51.50;;;;;;5051528;28;20191;-69
2022/03/21 00:08:37;;;;;;;9.85;8.93;;;16.80;51.50;;;;;;5051875;28;20178;-69
2022/03/21 00:11:02;;;;;;;9.30;8.50;;;16.80;51.40;;;;;;5051748;28;20164;-72
2022/03/21 00:13:28;;;;;;;10.32;9.32;;;16.80;51.50;;;;;;5051887;28;20245;-72
2022/03/21 00:15:54;;;;;;;9.38;8.57;;;16.80;51.40;;;;;;5052076;28;20183;-72
2022/03/21 00:18:19;;;;;;;10.20;9.30;;;16.80;51.50;;;;;;5054113;28;20544;-72
2022/03/21 00:20:47;;;;;;;11.15;10.15;;;16.80;51.50;;;;;;5055809;28;20630;-73
2022/03/21 00:23:12;;;;;;;10.30;9.40;;;16.80;51.50;;;;;;5055429;28;20175;-72
2022/03/21 00:25:38;;;;;;;9.82;9.00;;;16.80;51.40;;;;;;5055306;28;20222;-72
2022/03/21 00:28:04;;;;;;;10.27;9.32;;;16.80;51.50;;;;;;5055624;28;20186;-72
2022/03/21 00:30:30;;;;;;;9.77;8.98;;;16.80;51.50;;;;;;5055414;28;20245;-72
2022/03/21 00:32:56;;;;;;;10.15;9.15;;;16.70;51.40;;;;;;5054976;28;20647;-72
2022/03/21 00:35:21;;;;;;;9.55;8.65;;;16.70;51.40;;;;;;5055231;28;20238;-70
2022/03/21 00:37:47;;;;;;;10.38;9.50;;;16.70;51.50;;;;;;5055553;28;20544;-70
2022/03/21 00:40:13;;;;;;;10.20;9.05;;;16.70;51.50;;;;;;5054578;28;20171;-69
2022/03/21 00:42:40;;;;;;;9.98;9.13;;;16.70;51.50;;;;;;5055560;28;20194;-70
2022/03/21 00:45:06;;;;;;;10.70;9.70;;;16.70;51.50;;;;;;5055353;28;20183;-71
2022/03/21 00:47:32;;;;;;;9.55;8.77;;;16.70;51.40;;;;;;5054625;28;20184;-72
2022/03/21 00:49:58;;;;;;;9.90;8.90;;;16.70;51.50;;;;;;5055439;28;20633;-72
2022/03/21 00:52:24;;;;;;;10.40;9.38;;;16.60;51.40;;;;;;5054867;28;20183;-71
2022/03/21 00:54:49;;;;;;;10.32;9.32;;;16.60;51.40;;;;;;5054618;28;20208;-72
2022/03/21 00:57:15;;;;;;;10.48;9.48;;;16.60;51.40;;;;;;5054855;28;20223;-72
2022/03/21 00:59:40;;;;;;;11.52;10.25;;;16.60;51.50;;;;;;5055189;28;20179;-70
2022/03/21 01:02:08;;;;;;;10.50;9.60;;;16.60;51.40;;;;;;5054279;28;20179;-69
2022/03/21 01:04:33;;;;;;;9.90;9.10;;;16.60;51.50;;;;;;5055013;28;20185;-70
2022/03/21 01:06:59;;;;;;;10.60;9.63;;;16.60;51.50;;;;;;5054899;28;20258;-70
2022/03/21 01:09:24;;;;;;;10.48;9.57;;;16.60;51.50;;;;;;5054102;28;20171;-72
2022/03/21 01:11:50;;;;;;;10.30;9.27;;;16.50;51.40;;;;;;5054896;28;20179;-72
2022/03/21 01:14:15;;;;;;;10.05;9.13;;;16.50;51.40;;;;;;5053716;28;20203;-73
2022/03/21 01:16:41;;;;;;;10.27;9.30;;;16.50;51.40;;;;;;5054961;28;20178;-72
2022/03/21 01:19:06;;;;;;;10.25;9.35;;;16.50;51.40;;;;;;5054453;28;20179;-72
2022/03/21 01:21:35;;;;;;;10.32;9.32;;;16.50;51.40;;;;;;5053929;28;20590;-72
2022/03/21 01:24:01;;;;;;;9.80;8.90;;;16.50;51.30;;;;;;5054851;28;20171;-72
2022/03/21 01:26:26;;;;;;;10.90;9.90;;;16.50;51.40;;;;;;5054231;28;20324;-72
2022/03/21 01:28:52;;;;;;;9.95;8.95;;;16.50;51.30;;;;;;5052872;28;20179;-72
2022/03/21 01:31:17;;;;;;;9.95;9.10;;;16.50;51.40;;;;;;5054285;28;20182;-73
2022/03/21 01:33:43;;;;;;;10.43;9.52;;;16.50;51.30;;;;;;5054343;28;20207;-71
2022/03/21 01:36:09;;;;;;;10.75;9.75;;;16.40;51.40;;;;;;5053391;28;20267;-69
2022/03/21 01:38:34;;;;;;;9.52;8.70;;;16.40;51.40;;;;;;5054578;28;20179;-71
2022/03/21 01:41:00;;;;;;;10.02;9.13;;;16.40;51.30;;;;;;5054517;28;20614;-71
2022/03/21 01:43:25;;;;;;;10.30;9.40;;;16.40;51.40;;;;;;5053296;28;20201;-72
2022/03/21 01:45:51;;;;;;;10.20;9.30;;;16.40;51.40;;;;;;5054340;28;20186;-72
2022/03/21 01:48:17;;;;;;;11.20;10.20;;;16.40;51.40;;;;;;5054005;28;20191;-72
2022/03/21 01:50:42;;;;;;;10.25;9.38;;;16.40;52.00;;;;;;5053418;28;20175;-73
2022/03/21 01:55:53;;;;;;;10.23;9.40;;;16.40;51.40;;;;;;5054067;28;20186;-72
2022/03/21 01:58:19;;;;;;;10.05;9.05;;;16.40;51.40;;;;;;5052817;28;20211;-71
2022/03/21 02:00:47;;;;;;;10.20;9.20;;;16.30;51.40;;;;;;5054006;28;20175;-70
2022/03/21 02:03:14;;;;;;;9.80;8.95;;;16.30;51.30;;;;;;5053397;28;20175;-70
2022/03/21 02:05:39;;;;;;;11.27;10.13;;;16.30;51.40;;;;;;5053250;28;20186;-70
2022/03/21 02:08:05;;;;;;;9.60;8.70;;;16.30;51.30;;;;;;5052764;28;20171;-70
2022/03/21 02:10:30;;;;;;;9.98;9.07;;;16.30;51.30;;;;;;5053016;28;20266;-71
2022/03/21 02:12:56;;;;;;;10.52;9.57;;;16.30;51.30;;;;;;5053873;28;20532;-72
2022/03/21 02:15:21;;;;;;;9.60;8.80;;;16.30;51.30;;;;;;5053132;28;20284;-72
2022/03/21 02:17:47;;;;;;;10.15;9.27;;;16.30;51.30;;;;;;5051621;28;20183;-72
2022/03/21 02:20:19;;;;;;;11.40;10.25;;;16.30;51.30;;;;;;5053448;28;20174;-72
2022/03/21 02:23:09;;;;;;;10.50;9.50;;;16.30;51.20;;;;;;5035817;28;20175;-71
2022/03/21 02:25:36;;;;;;;9.88;8.98;;;16.30;51.30;;;;;;5052708;28;20260;-72
2022/03/21 02:28:10;;;;;;;9.95;9.05;;;16.20;51.20;;;;;;5053409;28;20171;-72
2022/03/21 02:30:41;;;;;;;10.18;9.27;;;16.20;51.20;;;;;;5053482;28;20187;-72
2022/03/21 02:33:06;;;;;;;10.15;9.23;;;16.20;51.30;;;;;;5052440;28;20571;-72
2022/03/21 02:35:32;;;;;;;10.60;9.68;;;16.20;51.30;;;;;;5053392;28;20305;-71
2022/03/21 02:37:58;;;;;;;10.25;9.35;;;16.20;51.20;;;;;;5053262;28;20175;-70
2022/03/21 02:40:24;;;;;;;9.95;9.05;;;16.20;51.20;;;;;;5051986;28;20653;-70
2022/03/21 02:42:50;;;;;;;10.70;9.77;;;16.20;51.20;;;;;;5053109;28;20193;-71
2022/03/21 02:45:15;;;;;;;9.35;8.45;;;16.20;51.20;;;;;;5052656;28;20701;-72
2022/03/21 02:47:41;;;;;;;10.60;9.65;;;16.20;51.20;;;;;;5052518;28;20217;-72
2022/03/21 02:50:08;;;;;;;9.90;9.07;;;16.20;51.30;;;;;;5052822;28;20187;-73
2022/03/21 02:52:34;;;;;;;10.80;9.85;;;16.10;51.30;;;;;;5052938;28;20199;-72
2022/03/21 02:54:59;;;;;;;10.18;9.27;;;16.20;51.20;;;;;;5052392;28;20289;-72
2022/03/21 02:57:25;;;;;;;10.40;9.50;;;16.10;51.20;;;;;;5052334;28;20301;-72
2022/03/21 02:59:50;;;;;;;10.10;9.20;;;16.10;51.20;;;;;;5052186;28;20217;-70
2022/03/21 03:02:16;;;;;;;10.82;9.82;;;16.10;51.20;;;;;;5052601;28;20601;-70
2022/03/21 03:04:42;;;;;;;10.68;9.68;;;16.10;51.20;;;;;;5052887;28;20634;-70
2022/03/21 03:07:07;;;;;;;9.90;9.00;;;16.10;51.20;;;;;;5051895;28;20173;-71
2022/03/21 03:09:33;;;;;;;10.63;9.73;;;16.10;51.20;;;;;;5052806;28;20175;-71
2022/03/21 03:12:00;;;;;;;10.07;9.18;;;16.10;51.20;;;;;;5052693;28;20227;-71
2022/03/21 03:14:25;;;;;;;10.02;9.13;;;16.10;51.20;;;;;;5051709;28;20215;-71
2022/03/21 03:16:51;;;;;;;10.77;9.73;;;16.00;51.10;;;;;;5052570;28;20695;-73
2022/03/21 03:19:16;;;;;;;10.18;9.07;;;16.00;51.20;;;;;;5052465;28;20190;-72
2022/03/21 03:21:44;;;;;;;10.57;9.57;;;16.00;51.80;;;;;;5051890;28;20171;-71
2022/03/21 03:24:12;;;;;;;10.70;9.70;;;16.00;51.20;;;;;;5052332;28;20186;-72
2022/03/21 03:26:37;;;;;;;10.45;9.40;;;16.00;51.20;;;;;;5052513;28;20675;-72
2022/03/21 03:29:03;;;;;;;10.15;9.25;;;16.00;51.10;;;;;;5052025;28;20179;-73
2022/03/21 03:31:28;;;;;;;9.80;8.90;;;16.00;51.20;;;;;;5052408;28;20180;-72
2022/03/21 03:33:54;;;;;;;10.55;9.57;;;16.00;51.10;;;;;;5034647;28;20203;-70
2022/03/21 03:36:19;;;;;;;9.88;8.98;;;16.00;51.20;;;;;;5050143;28;20223;-72
2022/03/21 03:38:45;;;;;;;10.68;9.77;;;16.00;51.20;;;;;;5051280;28;20178;-70
2022/03/21 03:41:11;;;;;;;10.65;9.65;;;15.90;51.10;;;;;;5051974;28;20205;-72
2022/03/21 03:43:37;;;;;;;10.35;9.35;;;15.90;51.10;;;;;;5051846;28;20179;-71
2022/03/21 03:46:03;;;;;;;9.60;8.80;;;15.90;51.10;;;;;;5052524;28;20642;-72
2022/03/21 03:48:28;;;;;;;10.13;9.20;;;15.90;51.10;;;;;;5051938;28;20622;-72
2022/03/21 03:50:54;;;;;;;10.73;9.63;;;15.90;51.10;;;;;;5051772;28;20204;-73
2022/03/21 03:53:19;;;;;;;9.98;9.07;;;15.90;51.20;;;;;;5054983;28;20193;-73
2022/03/21 03:55:45;;;;;;;9.52;8.73;;;15.90;51.10;;;;;;5056299;28;20262;-72
2022/03/21 03:58:10;;;;;;;10.27;9.38;;;15.90;51.20;;;;;;5055128;28;20235;-71
2022/03/21 04:00:36;;;;;;;9.35;8.55;;;15.80;51.10;;;;;;5056198;28;20179;-71
2022/03/21 04:05:46;;;;;;;9.57;8.63;;;15.90;51.10;;;;;;5056445;28;20185;-72
2022/03/21 04:08:12;;;;;;;9.27;8.38;;;15.90;51.20;;;;;;5055772;28;20258;-71
2022/03/21 04:10:37;;;;;;;9.15;8.25;;;15.80;51.10;;;;;;5055524;28;20175;-72
2022/03/21 04:13:03;;;;;;;8.95;8.10;;;15.80;51.10;;;;;;5056233;28;20167;-73
2022/03/21 04:15:28;;;;;;;9.68;8.77;;;15.80;51.10;;;;;;5055748;28;20210;-72
2022/03/21 04:18:01;;;;;;;9.60;8.70;;;15.80;51.10;;;;;;5055109;28;20457;-72
2022/03/21 04:20:29;;;;;;;9.82;8.88;;;15.80;51.10;;;;;;5055509;28;20530;-73
2022/03/21 04:22:54;;;;;;;9.38;8.57;;;15.80;51.10;;;;;;5055704;28;20183;-73
2022/03/21 04:25:20;;;;;;;8.88;8.07;;;15.80;51.10;;;;;;5054429;28;20179;-73
2022/03/21 04:27:45;;;;;;;9.85;8.93;;;15.80;51.10;;;;;;5055675;28;20556;-72
2022/03/21 04:30:11;;;;;;;8.57;7.78;;;15.70;51.00;;;;;;5055378;28;20182;-72
2022/03/21 04:32:36;;;;;;;8.35;7.55;;;15.80;51.00;;;;;;5055096;28;20546;-72
2022/03/21 04:35:03;;;;;;;9.55;8.60;;;15.70;51.10;;;;;;5055568;28;20568;-70
2022/03/21 04:37:28;;;;;;;9.38;8.45;;;15.70;51.00;;;;;;5055133;28;20249;-71
2022/03/21 04:39:54;;;;;;;8.23;7.47;;;15.70;51.10;;;;;;5055088;28;20633;-70
2022/03/21 04:42:20;;;;;;;8.85;8.00;;;15.70;51.00;;;;;;5055247;28;20500;-71
2022/03/21 04:44:50;;;;;;;9.45;8.57;;;15.70;51.10;;;;;;5055524;28;20183;-72
2022/03/21 04:47:17;;;;;;;8.98;8.15;;;15.70;51.10;;;;;;5054462;28;20228;-72
2022/03/21 04:49:43;;;;;;;9.60;8.70;;;15.70;51.10;;;;;;5055228;28;20194;-72
2022/03/21 04:52:08;;;;;;;8.82;8.00;;;15.60;51.00;;;;;;5054596;28;20175;-73
2022/03/21 04:54:34;;;;;;;9.00;8.20;;;15.70;51.10;;;;;;5054872;28;20246;-72
2022/03/21 04:56:59;;;;;;;8.63;7.90;;;15.60;51.10;;;;;;5055131;28;20254;-72
2022/03/21 04:59:25;;;;;;;9.05;8.18;;;15.70;51.10;;;;;;5054304;28;20468;-71
2022/03/21 05:01:51;;;;;;;8.77;7.88;;;15.70;51.00;;;;;;5055071;28;20630;-70
2022/03/21 05:04:17;;;;;;;8.68;7.72;;;15.60;51.00;;;;;;5054610;28;20270;-69
2022/03/21 05:06:43;;;;;;;9.00;8.18;;;15.60;51.00;;;;;;5054391;28;20213;-70
2022/03/21 05:09:08;;;;;;;8.55;7.78;;;15.60;51.00;;;;;;5054847;28;20684;-72
2022/03/21 05:11:34;;;;;;;8.45;7.75;;;15.60;51.00;;;;;;5054884;28;20171;-72
2022/03/21 05:13:59;;;;;;;8.23;7.53;;;15.60;51.00;;;;;;5053964;28;20560;-71
2022/03/21 05:16:25;;;;;;;8.27;7.57;;;15.60;51.00;;;;;;5054545;28;20183;-71
2022/03/21 05:18:50;;;;;;;8.63;7.82;;;15.60;51.00;;;;;;5054814;28;20216;-72
2022/03/21 05:21:16;;;;;;;8.15;7.38;;;15.60;51.00;;;;;;5053544;28;20183;-72
2022/03/21 05:31:54;;;;;;;8.00;7.30;;;15.50;51.00;;;;;;5054547;28;20181;-72
2022/03/21 05:37:04;;;;;;;7.90;7.13;;;15.50;51.00;;;;;;5054454;28;20202;-70
2022/03/21 05:39:29;;;;;;;7.82;7.13;;;15.50;51.10;;;;;;5053969;28;20183;-71
2022/03/21 05:41:55;;;;;;;7.82;7.15;;;15.50;51.00;;;;;;5053521;28;20175;-71
2022/03/21 05:44:20;;;;;;;7.53;6.82;;;15.50;51.00;;;;;;5054200;28;20175;-72
2022/03/21 05:46:46;;;;;;;7.03;6.43;;;15.50;51.00;;;;;;5054388;28;20626;-73
2022/03/21 05:49:12;;;;;;;7.35;6.65;;;15.50;51.00;;;;;;5053113;28;20179;-73
2022/03/21 05:51:38;;;;;;;7.40;6.80;;;15.40;51.00;;;;;;5054102;28;20630;-73
2022/03/21 05:54:05;;;;;;;7.80;7.00;;;15.50;51.00;;;;;;5053921;28;20211;-73
2022/03/21 05:56:31;;;;;;;7.55;6.85;;;15.50;51.00;;;;;;5051723;28;20262;-73
2022/03/21 05:58:56;;;;;;;8.20;7.50;;;15.50;51.00;;;;;;5053972;28;20263;-72
2022/03/21 06:01:22;;;;;;;7.55;6.85;;;15.50;50.80;;;;;;5053697;28;20622;-71
2022/03/21 06:03:52;;;;;;;7.07;6.38;;;15.50;50.80;;;;;;5053491;28;20258;-70
2022/03/21 06:06:18;;;;;;;6.90;6.30;;;15.60;50.60;;;;;;5053595;28;20210;-71
2022/03/21 06:08:44;;;;;;;7.30;6.63;;;15.70;50.60;;;;;;5053737;28;20175;-71
2022/03/21 06:11:13;;;;;;;6.95;6.25;;;15.80;50.40;;;;;;5052610;28;20237;-73
2022/03/21 06:13:42;;;;;;;6.35;5.75;;;15.90;50.50;;;;;;5053795;28;20203;-73
2022/03/21 06:16:07;;;;;;;6.93;6.22;;;16.10;50.20;;;;;;5053060;28;20175;-72
2022/03/21 06:18:34;;;;;;;6.60;6.00;;;16.30;50.10;;;;;;5053000;28;20634;-73
2022/03/21 06:21:00;;;;;;;6.28;5.68;;;16.50;49.70;;;;;;5053717;28;20218;-72
2022/03/21 06:23:26;;;;;;;6.13;5.60;;;16.60;49.60;;;;;;5053315;28;20663;-73
2022/03/21 06:25:53;;;;;;;6.18;5.68;;;16.70;49.30;;;;;;5052602;28;20765;-72
2022/03/21 06:28:21;;;;;;;6.60;6.00;;;16.80;49.20;;;;;;5053252;28;20179;-72
2022/03/21 06:30:47;;;;;;;5.47;4.93;;;16.80;49.20;;;;;;5052772;28;20171;-74
2022/03/21 06:33:13;;;;;;;6.80;6.10;;;16.80;49.20;;;;;;5053133;28;20197;-73
2022/03/21 06:35:38;;;;;;;6.43;5.78;;;16.80;49.20;;;;;;5053458;28;20222;-71
2022/03/21 06:38:04;;;;;;;5.97;5.38;;;16.90;49.20;;;;;;5052509;28;20183;-71
2022/03/21 06:40:30;;;;;;;6.25;5.70;;;17.00;49.00;;;;;;5052770;28;20197;-70
2022/03/21 06:42:56;;;;;;;5.90;5.40;;;17.20;48.80;;;;;;5053416;28;20182;-71
2022/03/21 06:45:21;;;;;;;5.70;5.00;;;17.20;48.70;;;;;;5052192;28;20551;-73
2022/03/21 06:47:47;;;;;;;6.22;5.57;;;17.20;48.60;;;;;;5052718;28;20187;-73
2022/03/21 06:50:12;;;;;;;5.60;5.18;;;17.20;48.60;;;;;;5052673;28;20175;-72
2022/03/21 06:52:39;;;;;;;6.10;5.60;;;17.20;48.50;;;;;;5052345;28;20167;-73
2022/03/21 06:55:06;;;;;;;5.72;5.22;;;17.10;48.70;;;;;;5053262;28;20214;-74
2022/03/21 06:57:31;;;;;;;5.25;4.85;;;17.10;48.80;;;;;;5052733;28;20250;-73
2022/03/21 06:59:57;;;;;;;5.70;5.20;;;17.10;48.90;;;;;;5052277;28;20214;-71
2022/03/21 07:02:23;;;;;;;6.50;5.38;;;17.00;49.00;;;;;;5052639;28;20257;-66
2022/03/21 07:04:49;;;;;;;6.25;5.65;;;17.10;49.10;;;;;;5053132;28;20179;-66
2022/03/21 07:07:14;;;;;;;7.53;6.38;;;17.20;49.00;;;;;;5051810;28;20175;-69
2022/03/21 07:09:40;;;;;;;8.63;7.05;;;17.20;48.60;;;;;;5052845;28;20187;-72
2022/03/21 07:12:06;;;;;;;7.63;5.97;;;17.40;48.40;;;;;;5052518;28;20696;-75
2022/03/21 07:14:31;;;;;;;9.05;6.30;;;17.50;48.20;;;;;;5052007;28;20256;-74
2022/03/21 07:16:57;;;;;;;7.28;5.72;;;17.60;48.20;;;;;;5052549;28;20171;-73
2022/03/21 07:19:22;;;;;;;6.05;5.45;;;17.60;48.00;;;;;;5052287;28;20213;-71
2022/03/21 07:21:48;;;;;;;7.53;6.40;;;17.60;48.20;;;;;;5051824;28;20528;-73
2022/03/21 07:24:14;;;;;;;8.07;5.55;;;17.60;48.20;;;;;;5052138;28;20190;-73
2022/03/21 07:26:40;;;;;;;6.40;5.63;;;17.60;48.50;;;;;;5051830;28;20210;-72
2022/03/21 07:29:06;;;;;;;6.97;5.80;;;17.60;48.50;;;;;;5051957;28;20179;-73
2022/03/21 07:31:32;;;;;;;6.18;5.43;;;17.60;48.60;;;;;;5052395;28;20725;-71
2022/03/21 07:33:58;;;;;;;6.45;5.25;;;17.70;48.80;;;;;;5051703;28;20329;-68
2022/03/21 07:36:23;;;;;;;6.55;5.38;;;17.70;48.80;;;;;;5052077;28;20270;-70
2022/03/21 07:38:49;;;;;;;5.72;5.18;;;17.90;48.70;;;;;;5052611;28;20175;-71
2022/03/21 07:41:14;;;;;;;5.78;4.90;;;17.90;48.70;;;;;;5051416;28;20255;-71
2022/03/21 07:43:40;;;;;;;5.28;4.65;;;18.00;48.80;;;;;;5052346;28;20792;-73
2022/03/21 07:48:50;;;;;;;7.25;4.65;;;18.40;48.30;;;;;;5051660;28;20178;-72
2022/03/21 07:51:15;;;;;;;10.05;5.85;;;18.60;47.90;;;;;;5051988;28;20183;-70
2022/03/21 07:53:41;;;;;;;6.55;5.10;;;18.70;47.70;;;;;;5052133;28;20207;-70
2022/03/21 07:56:07;;;;;;;5.43;4.93;;;18.80;47.50;;;;;;5051489;28;20622;-69
2022/03/21 07:58:32;;;;;;;8.43;6.13;;;18.80;47.30;;;;;;5052237;28;20250;-68
2022/03/21 08:01:00;;;;;;;5.93;5.32;;;18.90;47.20;;;;;;5052462;28;20285;-72
2022/03/21 08:03:26;;;;;;;7.28;5.18;;;18.90;47.10;;;;;;5051158;28;20179;-72
2022/03/21 08:05:52;;;;;;;7.63;5.90;;;19.00;47.10;;;;;;5052126;28;20266;-72
2022/03/21 08:08:19;;;;;;;6.60;5.30;;;19.10;47.00;;;;;;5051971;28;20170;-73
2022/03/21 08:10:45;;;;;;;7.15;4.82;;;19.10;47.00;;;;;;5051544;28;20183;-73
2022/03/21 08:13:13;;;;;;;6.20;5.28;;;19.10;47.10;;;;;;5051863;28;20171;-75
2022/03/21 08:15:39;;;;;;;5.47;4.93;;;19.10;47.10;;;;;;5052127;28;20211;-74
2022/03/21 08:18:05;;;;;;;6.88;4.90;;;19.10;47.20;;;;;;5051339;28;20194;-73
2022/03/21 08:20:35;;;;;;;5.65;4.90;;;19.10;47.30;;;;;;5051924;28;20206;-73
2022/03/21 08:23:11;;;;;;;5.60;4.32;;;19.00;47.50;;;;;;5052041;28;20618;-74
2022/03/21 08:25:41;;;;;;;4.57;4.13;;;19.00;47.60;;;;;;5052195;28;20217;-75
2022/03/21 08:28:07;;;;;;;5.97;4.60;;;19.00;47.60;;;;;;5051708;28;20305;-73
2022/03/21 08:30:35;;;;;;;5.75;4.40;;;19.10;47.60;;;;;;5051150;28;20537;-72
2022/03/21 08:33:02;;;;;;;5.05;4.10;;;19.10;47.60;;;;;;5052125;28;20175;-71
2022/03/21 08:35:28;;;;;;;5.18;4.10;;;19.10;47.60;;;;;;5051683;28;20269;-70
2022/03/21 08:37:53;;;;;;;6.75;4.32;;;19.20;47.70;;;;;;5051775;28;20191;-72
2022/03/21 08:40:19;;;;;;;4.28;3.88;;;19.20;47.70;;;;;;5055333;28;20179;-71
2022/03/21 08:42:45;;;;;;;4.40;4.00;;;19.10;47.70;;;;;;5055387;28;20187;-73
2022/03/21 08:45:12;;;;;;;7.20;3.97;;;19.10;47.80;;;;;;5054358;28;20626;-72
2022/03/21 08:47:38;;;;;;;4.80;4.13;;;19.00;47.90;;;;;;5055406;28;20203;-72
2022/03/21 08:50:04;;;;;;;4.80;4.15;;;19.00;48.10;;;;;;5055482;28;20206;-73
2022/03/21 08:52:29;;;;;;;4.68;3.95;;;18.90;48.20;;;;;;5054171;28;20195;-72
2022/03/21 08:54:56;;;;;;;4.70;3.92;;;18.80;48.30;;;;;;5055042;28;20211;-73
2022/03/21 08:57:21;;;;;;;6.57;4.20;;;18.70;48.40;;;;;;5054753;28;20606;-73
2022/03/21 08:59:47;;;;;;;4.47;4.03;;;18.70;48.60;;;;;;5054457;28;20705;-71
2022/03/21 09:02:13;;;;;;;4.75;4.20;;;18.70;48.80;;;;;;5054791;28;20193;-70
2022/03/21 09:04:39;;;;;;;4.63;3.97;;;18.70;48.90;;;;;;5055319;28;20214;-70
2022/03/21 09:07:05;;;;;;;6.47;4.10;;;18.80;48.90;;;;;;5054266;28;20214;-72
2022/03/21 09:09:31;;;;;;;4.28;3.88;;;18.80;48.80;;;;;;5054953;28;20183;-73
2022/03/21 09:11:57;;;;;;;4.28;3.47;;;18.90;48.90;;;;;;5055264;28;20220;-72
2022/03/21 09:14:22;;;;;;;4.40;3.75;;;18.80;48.80;;;;;;5053822;28;20210;-74
2022/03/21 09:16:50;;;;;;;4.53;3.65;;;18.80;48.80;;;;;;5054869;28;20177;-72
2022/03/21 09:19:16;;;;;;;3.65;3.35;;;18.80;48.90;;;;;;5054397;28;20713;-73
2022/03/21 09:21:41;;;;;;;5.13;3.65;;;18.70;49.00;;;;;;5054263;28;20270;-74
2022/03/21 09:24:07;;;;;;;5.25;3.67;;;18.70;49.20;;;;;;5054465;28;20175;-72
2022/03/21 09:26:32;;;;;;;4.18;3.67;;;18.80;49.20;;;;;;5053978;28;20174;-72
2022/03/21 09:29:03;;;;;;;4.22;3.63;;;18.80;49.20;;;;;;5054564;28;20191;-72
2022/03/21 09:31:29;;;;;;;3.75;3.45;;;18.90;49.10;;;;;;5054434;28;20167;-71
2022/03/21 09:33:56;;;;;;;4.20;3.90;;;18.80;49.00;;;;;;5054041;28;20199;-71
2022/03/21 09:36:21;;;;;;;3.75;3.45;;;18.80;49.10;;;;;;5054378;28;20182;-70
2022/03/21 09:38:47;;;;;;;4.50;3.85;;;18.80;49.20;;;;;;5054536;28;20537;-70
2022/03/21 09:41:13;;;;;;;5.65;4.05;;;18.70;49.30;;;;;;5053503;28;20591;-72
2022/03/21 09:43:39;;;;;;;4.43;3.70;;;18.70;49.50;;;;;;5054291;28;20167;-73
2022/03/21 09:46:06;;;;;;;4.93;3.58;;;18.80;49.50;;;;;;5054432;28;20186;-72
2022/03/21 09:48:32;;;;;;;4.55;3.50;;;18.80;49.50;;;;;;5036258;28;20179;-72
2022/03/21 09:50:57;;;;;;;4.00;3.17;;;18.90;49.40;;;;;;5052080;28;20202;-73
2022/03/21 09:53:23;;;;;;;4.00;3.42;;;18.90;49.40;;;;;;5052523;28;20514;-72
2022/03/21 09:55:48;;;;;;;4.50;3.58;;;18.80;49.40;;;;;;5053151;28;20318;-72
2022/03/21 09:58:14;;;;;;;4.40;3.80;;;18.80;49.50;;;;;;5052166;28;20264;-71
2022/03/21 10:00:40;;;;;;;4.07;3.67;;;18.80;49.50;;;;;;5054253;28;20202;-71
2022/03/21 10:03:06;;;;;;;4.18;3.78;;;18.80;49.60;;;;;;5053189;28;20175;-72
2022/03/21 10:05:39;;;;;;;4.30;3.90;;;18.80;49.70;;;;;;5053993;28;20182;-72
2022/03/21 10:08:27;;;;;;;3.58;3.28;;;18.80;49.70;;;;;;5053876;28;20655;-73
2022/03/21 10:10:59;;;;;;;3.50;3.20;;;18.80;49.60;;;;;;5053036;28;20179;-72
2022/03/21 10:13:32;;;;;;;3.75;3.35;;;18.80;49.60;;;;;;5053487;28;20967;-73
2022/03/21 10:16:13;;;;;;;3.92;3.60;;;18.90;49.60;;;;;;5053225;28;20198;-73
2022/03/21 10:18:51;;;;;;;5.68;3.55;;;18.80;49.60;;;;;;5053603;28;20728;-72
2022/03/21 10:21:17;;;;;;;3.90;3.50;;;18.80;49.70;;;;;;5053260;28;20178;-73
2022/03/21 10:23:44;;;;;;;4.20;3.72;;;18.80;49.70;;;;;;5052835;28;20182;-74
2022/03/21 10:26:30;;;;;;;3.95;3.55;;;18.80;49.80;;;;;;5053494;28;20179;-73
2022/03/21 10:28:59;;;;;;;5.00;3.50;;;18.80;49.80;;;;;;5053619;28;20179;-72
2022/03/21 10:31:52;;;;;;;3.70;3.40;;;18.80;49.80;;;;;;5052415;28;20225;-71
2022/03/21 10:34:19;;;;;;;4.57;3.47;;;18.90;49.80;;;;;;5053109;28;20302;-70
2022/03/21 10:37:17;;;;;;;3.83;3.40;;;18.90;49.80;;;;;;5053386;28;20175;-70
2022/03/21 10:39:50;;;;;;;3.95;3.55;;;18.90;49.70;;;;;;5041277;28;20183;-72
2022/03/21 10:42:15;;;;;;;4.20;3.80;;;18.90;49.80;;;;;;5053197;28;20179;-72
2022/03/21 10:44:41;;;;;;;3.78;3.47;;;18.90;49.80;;;;;;5052632;28;20171;-73
2022/03/21 10:47:07;;;;;;;5.05;3.78;;;18.90;49.80;;;;;;5053015;28;20175;-72
2022/03/21 10:49:34;;;;;;;3.95;3.17;;;18.90;49.90;;;;;;5053177;28;20171;-73
2022/03/21 10:52:00;;;;;;;5.00;3.65;;;18.90;49.90;;;;;;5052431;28;20179;-72
2022/03/21 10:54:35;;;;;;;3.50;3.20;;;18.90;49.90;;;;;;5052502;28;20372;-73
2022/03/21 10:57:00;;;;;;;3.63;3.33;;;18.90;49.90;;;;;;5052965;28;20222;-73
2022/03/21 10:59:26;;;;;;;4.15;3.70;;;18.90;49.90;;;;;;5052172;28;20978;-71
2022/03/21 11:02:14;;;;;;;3.72;3.42;;;18.90;49.90;;;;;;5051698;28;20178;-70
2022/03/21 11:04:41;;;;;;;3.80;3.50;;;18.90;49.90;;;;;;5052879;28;20171;-70
2022/03/21 11:07:11;;;;;;;4.10;3.35;;;18.90;49.90;;;;;;5051818;28;20693;-71
2022/03/21 11:09:37;;;;;;;3.53;3.22;;;18.90;49.90;;;;;;5052878;28;20206;-73
2022/03/21 11:12:03;;;;;;;3.55;3.25;;;19.00;49.90;;;;;;5051881;28;20626;-73
2022/03/21 11:14:28;;;;;;;4.03;3.10;;;18.90;49.90;;;;;;5051072;28;20199;-74
2022/03/21 11:16:54;;;;;;;3.67;3.35;;;18.90;50.00;;;;;;5051613;28;20179;-73
2022/03/21 11:19:20;;;;;;;4.05;3.20;;;18.90;49.90;;;;;;5051758;28;20178;-76
2022/03/21 11:21:45;;;;;;;3.42;3.13;;;18.90;49.90;;;;;;5051336;28;20254;-75
2022/03/21 11:24:12;;;;;;;3.67;3.38;;;18.90;50.00;;;;;;5052197;28;20179;-74
2022/03/21 11:26:56;;;;;;;3.72;3.33;;;18.90;50.10;;;;;;5052223;28;20510;-75
2022/03/21 11:30:00;;;;;;;3.63;3.33;;;18.90;50.10;;;;;;5036005;28;20546;-73
2022/03/21 11:32:31;;;;;;;3.45;3.03;;;19.00;50.20;;;;;;5051722;28;20198;-69
2022/03/21 11:35:17;;;;;;;4.00;3.70;;;19.00;50.40;;;;;;5051797;28;20237;-69
2022/03/21 11:37:42;;;;;;;6.07;3.55;;;18.90;50.10;;;;;;5051383;28;20202;-70
2022/03/21 11:40:23;;;;;;;6.38;4.22;;;18.80;50.10;;;;;;5050258;28;20539;-69
2022/03/21 11:42:49;;;;;;;8.63;3.97;;;18.90;50.20;;;;;;5052022;28;20644;-72
2022/03/21 11:45:24;;;;;;;5.00;3.55;;;18.80;50.20;;;;;;5052029;28;20182;-71
2022/03/21 11:48:09;;;;;;;4.03;3.63;;;18.90;50.30;;;;;;5051569;28;20261;-72
2022/03/21 11:50:35;;;;;;;7.32;3.60;;;18.90;50.30;;;;;;5052291;28;20175;-71
2022/03/21 11:53:13;;;;;;;3.55;3.22;;;18.90;50.30;;;;;;5052248;28;20531;-71
2022/03/21 11:55:43;;;;;;;6.43;3.65;;;19.00;50.30;;;;;;5051643;28;20245;-72
2022/03/21 11:58:38;;;;;;;6.38;3.58;;;19.00;50.40;;;;;;5051868;28;20284;-70
2022/03/21 12:01:07;;;;;;;4.63;3.47;;;19.00;50.40;;;;;;5052048;28;20182;-70
2022/03/21 12:03:33;;;;;;;4.00;3.58;;;19.00;50.50;;;;;;5051601;28;20262;-71
2022/03/21 12:06:18;;;;;;;4.80;2.95;;;19.00;50.50;;;;;;5052213;28;20270;-69
2022/03/21 12:08:52;;;;;;;5.90;3.90;;;19.00;50.50;;;;;;5051280;28;20206;-70
2022/03/21 12:11:37;;;;;;;4.18;3.58;;;19.00;50.30;;;;;;5051792;28;20183;-70
2022/03/21 12:14:36;;;;;;;7.03;3.90;;;19.00;50.40;;;;;;5054812;28;20221;-69
2022/03/21 12:17:01;;;;;;;7.45;3.95;;;18.90;50.30;;;;;;5055318;28;20271;-69
2022/03/21 12:19:48;;;;;;;3.83;3.47;;;18.90;50.30;;;;;;5055833;28;20226;-70
2022/03/21 12:22:28;;;;;;;6.15;3.72;;;18.80;50.20;;;;;;5055903;28;20202;-69
2022/03/21 12:25:41;;;;;;;4.38;3.97;;;18.80;50.80;;;;;;5056092;28;20170;-70
2022/03/21 12:31:24;;;;;;;5.97;3.50;;;18.80;50.10;;;;;;5054683;28;20173;-69
2022/03/21 12:33:50;;;;;;;4.68;3.83;;;18.90;50.20;;;;;;5055835;28;20214;-68
2022/03/21 12:36:32;;;;;;;4.60;3.85;;;18.80;50.10;;;;;;5055385;28;20218;-69
2022/03/21 12:38:58;;;;;;;5.18;3.60;;;18.80;50.00;;;;;;5055862;28;20182;-68
2022/03/21 12:41:23;;;;;;;3.67;3.38;;;18.80;50.10;;;;;;5055411;28;20171;-69
2022/03/21 12:43:52;;;;;;;4.18;3.50;;;18.80;50.00;;;;;;5036881;28;20174;-69
2022/03/21 12:46:18;;;;;;;3.30;3.10;;;18.80;50.00;;;;;;5055046;28;20187;-69
2022/03/21 12:48:49;;;;;;;6.40;4.05;;;18.80;50.00;;;;;;5055524;28;20229;-70
2022/03/21 12:51:23;;;;;;;6.05;3.53;;;18.80;50.00;;;;;;5054326;28;20187;-70
2022/03/21 12:53:48;;;;;;;4.57;3.88;;;18.80;50.00;;;;;;5054234;28;20187;-70
2022/03/21 12:56:19;;;;;;;3.65;3.35;;;18.80;49.90;;;;;;5055149;28;20657;-69
2022/03/21 12:58:46;;;;;;;4.25;3.65;;;18.80;49.90;;;;;;5054351;28;20227;-69
2022/03/21 13:01:13;;;;;;;3.60;3.30;;;18.80;49.90;;;;;;5054877;28;20183;-68
2022/03/21 13:03:39;;;;;;;4.00;3.60;;;18.80;49.80;;;;;;5055037;28;20207;-68
2022/03/21 13:11:34;;;;;;;4.20;3.90;;;18.90;49.80;;;;;;5054766;28;20626;-70
2022/03/21 13:14:03;;;;;;;4.32;3.80;;;18.90;49.70;;;;;;5054819;28;20219;-70
2022/03/21 13:16:30;;;;;;;3.97;3.67;;;18.90;49.70;;;;;;5054709;28;20205;-70